createdAt,value
2019-02-02T00:02:25.776Z,59.18
2019-02-02T00:04:54.354Z,59.26
2019-02-02T00:07:23.006Z,59.00
2019-02-02T00:09:51.597Z,58.83
2019-02-02T00:12:20.430Z,58.97
2019-02-02T00:14:49.020Z,58.41
2019-02-02T00:17:17.592Z,58.58
2019-02-02T00:19:46.200Z,59.09
2019-02-02T00:22:15.003Z,59.02
2019-02-02T00:24:43.646Z,59.48
2019-02-02T00:27:12.212Z,59.15
2019-02-02T00:29:41.039Z,59.25
2019-02-02T00:32:09.622Z,58.77
2019-02-02T00:34:38.192Z,59.24
2019-02-02T00:37:06.789Z,59.34
2019-02-02T00:39:35.421Z,59.24
2019-02-02T00:42:04.252Z,59.42
2019-02-02T00:44:32.822Z,59.41
2019-02-02T00:47:01.420Z,59.28
2019-02-02T00:49:29.989Z,58.96
2019-02-02T00:51:58.600Z,59.12
2019-02-02T00:54:27.182Z,58.82
2019-02-02T00:56:55.840Z,58.54
2019-02-02T00:59:24.536Z,58.62
2019-02-02T01:01:53.104Z,58.59
2019-02-02T01:04:21.671Z,58.67
2019-02-02T01:06:50.325Z,59.06
2019-02-02T01:09:26.379Z,58.93
2019-02-02T01:11:55.455Z,58.96
2019-02-02T01:14:24.036Z,59.25
2019-02-02T01:16:52.721Z,59.04
2019-02-02T01:19:21.298Z,59.03
2019-02-02T01:21:49.953Z,58.61
2019-02-02T01:24:18.558Z,58.42
2019-02-02T01:26:47.226Z,58.61
2019-02-02T01:29:15.884Z,58.75
2019-02-02T01:31:44.460Z,58.86
2019-02-02T01:34:13.037Z,58.94
2019-02-02T01:36:41.603Z,59.03
2019-02-02T01:39:10.192Z,58.71
2019-02-02T01:41:38.776Z,58.55
2019-02-02T01:44:07.763Z,58.63
2019-02-02T01:46:36.358Z,58.48
2019-02-02T01:49:05.228Z,58.54
2019-02-02T01:51:33.802Z,58.84
2019-02-02T01:54:02.397Z,58.67
2019-02-02T01:56:30.974Z,58.74
2019-02-02T01:58:59.583Z,58.91
2019-02-02T02:01:28.541Z,59.61
2019-02-02T02:03:57.146Z,59.63
2019-02-02T02:06:26.011Z,60.03
2019-02-02T02:08:54.597Z,59.80
2019-02-02T02:11:23.237Z,59.02
2019-02-02T02:13:52.062Z,59.35
2019-02-02T02:16:20.645Z,59.04
2019-02-02T02:18:49.212Z,59.11
2019-02-02T02:21:17.791Z,59.60
2019-02-02T02:23:46.596Z,59.19
2019-02-02T02:26:15.180Z,59.05
2019-02-02T02:28:43.985Z,59.13
2019-02-02T02:31:12.800Z,59.32
2019-02-02T02:33:41.372Z,59.31
2019-02-02T02:36:09.942Z,58.65
2019-02-02T02:38:38.531Z,58.59
2019-02-02T02:41:07.104Z,58.76
2019-02-02T02:43:35.667Z,58.91
2019-02-02T02:46:04.244Z,58.93
2019-02-02T02:48:32.815Z,59.05
2019-02-02T02:51:01.411Z,59.15
2019-02-02T02:53:29.978Z,59.01
2019-02-02T02:55:58.570Z,59.25
2019-02-02T02:58:27.141Z,59.28
2019-02-02T03:00:55.727Z,58.85
2019-02-02T03:03:24.360Z,59.14
2019-02-02T03:05:52.941Z,59.29
2019-02-02T03:08:21.595Z,59.92
2019-02-02T03:10:50.249Z,59.70
2019-02-02T03:13:18.838Z,59.31
2019-02-02T03:15:47.643Z,59.06
2019-02-02T03:18:16.295Z,59.39
2019-02-02T03:20:44.900Z,59.12
2019-02-02T03:23:13.482Z,61.44
2019-02-02T03:25:42.052Z,63.09
2019-02-02T03:28:10.647Z,63.06
2019-02-02T03:30:39.220Z,61.29
2019-02-02T03:33:07.814Z,60.30
2019-02-02T03:35:36.388Z,60.40
2019-02-02T03:38:05.387Z,60.84
2019-02-02T03:40:34.045Z,60.46
2019-02-02T03:43:02.740Z,61.59
2019-02-02T03:45:31.391Z,61.45
2019-02-02T03:47:59.966Z,62.32
2019-02-02T03:50:28.561Z,61.52
2019-02-02T03:52:57.141Z,63.32
2019-02-02T03:55:25.719Z,61.62
2019-02-02T03:57:54.316Z,61.12
2019-02-02T04:02:57.009Z,60.22
2019-02-02T04:05:27.249Z,61.09
2019-02-02T04:07:55.839Z,60.77
2019-02-02T04:10:24.432Z,63.46
2019-02-02T04:12:53.006Z,65.65
2019-02-02T04:15:21.740Z,62.94
2019-02-02T04:17:50.420Z,63.05
2019-02-02T04:20:22.398Z,62.06
2019-02-02T04:22:51.381Z,61.04
2019-02-02T04:25:21.067Z,60.47
2019-02-02T04:27:50.025Z,59.91
2019-02-02T04:30:20.917Z,60.20
2019-02-02T04:32:49.852Z,60.58
2019-02-02T04:35:18.498Z,60.52
2019-02-02T04:37:47.063Z,60.19
2019-02-02T04:40:15.660Z,61.33
2019-02-02T04:42:44.506Z,60.70
2019-02-02T04:45:13.658Z,63.60
2019-02-02T04:47:42.240Z,64.25
2019-02-02T04:50:12.783Z,62.07
2019-02-02T04:52:41.365Z,62.62
2019-02-02T04:55:10.634Z,62.77
2019-02-02T04:57:39.224Z,62.67
2019-02-02T05:00:34.325Z,62.03
2019-02-02T05:03:02.847Z,63.48
2019-02-02T05:05:31.487Z,61.54
2019-02-02T05:08:00.295Z,61.35
2019-02-02T05:10:28.864Z,60.81
2019-02-02T05:12:57.442Z,60.87
2019-02-02T05:15:26.070Z,60.52
2019-02-02T05:17:54.646Z,62.60
2019-02-02T05:20:23.198Z,62.12
2019-02-02T05:22:51.815Z,60.83
2019-02-02T05:25:20.561Z,62.31
2019-02-02T05:27:49.208Z,61.67
2019-02-02T05:30:23.392Z,60.87
2019-02-02T05:32:51.953Z,61.01
2019-02-02T05:35:20.843Z,60.41
2019-02-02T05:37:49.425Z,60.47
2019-02-02T05:40:18.655Z,60.59
2019-02-02T05:42:47.225Z,61.28
2019-02-02T05:45:17.225Z,60.45
2019-02-02T05:47:45.964Z,60.45
2019-02-02T05:50:16.626Z,60.63
2019-02-02T05:52:45.260Z,60.99
2019-02-02T05:55:14.593Z,60.31
2019-02-02T05:57:43.252Z,60.12
2019-02-02T06:00:16.555Z,60.46
2019-02-02T06:02:45.289Z,60.33
2019-02-02T06:05:13.876Z,60.42
2019-02-02T06:07:42.462Z,60.34
2019-02-02T06:10:12.859Z,61.02
2019-02-02T06:12:41.664Z,60.74
2019-02-02T06:15:10.577Z,59.99
2019-02-02T06:17:39.151Z,59.82
2019-02-02T06:20:09.347Z,60.02
2019-02-02T06:22:38.132Z,60.53
2019-02-02T06:25:08.156Z,60.27
2019-02-02T06:27:36.739Z,60.06
2019-02-02T06:30:07.436Z,60.36
2019-02-02T06:32:36.001Z,60.40
2019-02-02T06:35:05.340Z,60.92
2019-02-02T06:37:33.935Z,61.25
2019-02-02T06:40:02.538Z,61.07
2019-02-02T06:42:31.108Z,61.37
2019-02-02T06:44:59.713Z,60.48
2019-02-02T06:47:28.330Z,62.13
2019-02-02T06:49:57.046Z,61.64
2019-02-02T06:52:25.611Z,61.61
2019-02-02T06:54:54.193Z,60.89
2019-02-02T06:57:23.012Z,61.10
2019-02-02T06:59:51.612Z,60.99
2019-02-02T07:02:20.272Z,61.08
2019-02-02T07:04:48.832Z,60.92
2019-02-02T07:07:17.450Z,60.74
2019-02-02T07:09:46.044Z,59.88
2019-02-02T07:12:14.625Z,60.62
2019-02-02T07:14:43.203Z,61.81
2019-02-02T07:17:11.809Z,62.08
2019-02-02T07:19:40.499Z,62.36
2019-02-02T07:22:09.085Z,61.61
2019-02-02T07:24:37.660Z,61.58
2019-02-02T07:27:06.264Z,61.18
2019-02-02T07:29:34.926Z,61.36
2019-02-02T07:32:03.592Z,61.75
2019-02-02T07:34:32.175Z,60.56
2019-02-02T07:37:00.768Z,60.80
2019-02-02T07:39:29.340Z,60.99
2019-02-02T07:41:57.980Z,61.39
2019-02-02T07:44:26.836Z,61.88
2019-02-02T07:46:55.516Z,62.61
2019-02-02T07:49:24.596Z,62.80
2019-02-02T07:51:53.179Z,63.49
2019-02-02T07:54:21.967Z,62.82
2019-02-02T07:56:50.499Z,62.51
2019-02-02T07:59:19.108Z,62.51
2019-02-02T08:01:47.962Z,62.89
2019-02-02T08:04:16.773Z,63.14
2019-02-02T08:06:46.325Z,63.34
2019-02-02T08:09:15.091Z,62.87
2019-02-02T08:11:43.896Z,62.86
2019-02-02T08:14:12.779Z,62.58
2019-02-02T08:16:41.871Z,62.59
2019-02-02T08:19:11.448Z,63.92
2019-02-02T08:21:44.031Z,63.09
2019-02-02T08:24:13.972Z,62.81
2019-02-02T08:26:47.257Z,61.47
2019-02-02T08:29:16.833Z,60.89
2019-02-02T08:31:46.091Z,61.45
2019-02-02T08:34:15.767Z,61.83
2019-02-02T08:36:45.066Z,61.94
2019-02-02T08:39:13.632Z,61.81
2019-02-02T08:41:42.263Z,63.20
2019-02-02T08:44:10.853Z,63.49
2019-02-02T08:46:39.467Z,63.78
2019-02-02T08:49:08.088Z,63.72
2019-02-02T08:51:36.730Z,63.41
2019-02-02T08:54:05.377Z,62.27
2019-02-02T08:56:34.491Z,61.79
2019-02-02T08:59:03.056Z,61.91
2019-02-02T09:01:31.640Z,63.25
2019-02-02T09:04:00.273Z,62.12
2019-02-02T09:06:38.505Z,61.82
2019-02-02T09:08:59.139Z,62.15
2019-02-02T09:11:27.745Z,62.67
2019-02-02T09:13:56.371Z,62.62
2019-02-02T09:16:25.190Z,63.31
2019-02-02T09:18:54.133Z,60.70
2019-02-02T09:21:23.344Z,60.56
2019-02-02T09:23:52.064Z,60.89
2019-02-02T09:26:20.696Z,60.99
2019-02-02T09:28:49.379Z,61.69
2019-02-02T09:31:18.094Z,61.42
2019-02-02T09:33:46.953Z,60.39
2019-02-02T09:36:16.954Z,61.21
2019-02-02T09:38:45.749Z,62.01
2019-02-02T09:41:14.339Z,61.22
2019-02-02T09:43:43.251Z,60.87
2019-02-02T09:46:13.640Z,61.07
2019-02-02T09:48:42.447Z,61.13
2019-02-02T09:51:11.202Z,61.25
2019-02-02T09:53:39.937Z,59.82
2019-02-02T09:56:08.752Z,59.76
2019-02-02T09:58:37.415Z,61.33
2019-02-02T10:01:07.015Z,60.01
2019-02-02T10:03:35.605Z,62.14
2019-02-02T10:06:04.263Z,59.29
2019-02-02T10:08:32.882Z,59.51
2019-02-02T10:11:01.552Z,59.18
2019-02-02T10:13:30.230Z,60.12
2019-02-02T10:15:59.046Z,61.20
2019-02-02T10:21:33.399Z,60.08
2019-02-02T10:24:02.051Z,59.32
2019-02-02T10:26:30.852Z,60.00
2019-02-02T10:28:59.500Z,59.38
2019-02-02T10:31:38.864Z,59.18
2019-02-02T10:33:58.431Z,58.40
2019-02-02T10:36:27.118Z,58.20
2019-02-02T10:38:55.720Z,58.37
2019-02-02T10:41:24.482Z,56.21
2019-02-02T10:43:53.112Z,56.55
2019-02-02T10:46:21.801Z,57.65
2019-02-02T10:48:50.414Z,57.88
2019-02-02T10:51:19.223Z,59.75
2019-02-02T10:53:48.876Z,58.72
2019-02-02T10:56:17.521Z,58.60
2019-02-02T10:58:46.362Z,58.69
2019-02-02T11:01:15.065Z,59.38
2019-02-02T11:03:43.763Z,58.57
2019-02-02T11:06:12.435Z,57.58
2019-02-02T11:08:41.224Z,57.75
2019-02-02T11:11:10.023Z,59.05
2019-02-02T11:13:38.763Z,58.02
2019-02-02T11:16:08.365Z,59.27
2019-02-02T11:18:37.448Z,57.70
2019-02-02T11:21:06.231Z,57.49
2019-02-02T11:23:34.888Z,57.99
2019-02-02T11:26:03.626Z,56.32
2019-02-02T11:28:32.735Z,58.16
2019-02-02T11:31:01.451Z,58.28
2019-02-02T11:33:30.143Z,57.26
2019-02-02T11:35:58.995Z,57.41
2019-02-02T11:38:27.835Z,57.04
2019-02-02T11:40:56.420Z,57.10
2019-02-02T11:43:24.993Z,55.28
2019-02-02T11:45:53.561Z,56.53
2019-02-02T11:48:22.250Z,56.32
2019-02-02T11:50:50.843Z,54.20
2019-02-02T11:53:19.806Z,56.48
2019-02-02T11:55:48.347Z,55.37
2019-02-02T11:58:17.791Z,54.07
2019-02-02T12:00:46.403Z,53.97
2019-02-02T12:03:14.995Z,54.19
2019-02-02T12:05:43.674Z,55.60
2019-02-02T12:08:13.099Z,54.81
2019-02-02T12:10:41.666Z,54.88
2019-02-02T12:13:10.353Z,53.25
2019-02-02T12:15:38.968Z,53.49
2019-02-02T12:18:07.918Z,53.98
2019-02-02T12:20:36.587Z,53.46
2019-02-02T12:23:05.454Z,54.04
2019-02-02T12:25:34.342Z,53.49
2019-02-02T12:28:03.179Z,54.60
2019-02-02T12:30:33.431Z,55.57
2019-02-02T12:33:04.818Z,55.03
2019-02-02T12:35:33.581Z,56.49
2019-02-02T12:38:02.469Z,55.98
2019-02-02T12:40:31.470Z,55.95
2019-02-02T12:43:00.363Z,54.92
2019-02-02T12:45:54.137Z,55.60
2019-02-02T12:48:23.691Z,56.11
2019-02-02T12:50:52.753Z,54.87
2019-02-02T12:53:21.366Z,55.32
2019-02-02T12:55:50.413Z,57.50
2019-02-02T12:58:19.071Z,56.22
2019-02-02T13:00:47.660Z,57.24
2019-02-02T13:03:16.497Z,57.95
2019-02-02T13:05:45.264Z,57.03
2019-02-02T13:08:14.185Z,56.46
2019-02-02T13:10:42.810Z,56.23
2019-02-02T13:13:11.445Z,57.23
2019-02-02T13:15:40.223Z,59.06
2019-02-02T13:18:08.932Z,57.48
2019-02-02T13:20:37.658Z,57.34
2019-02-02T13:23:06.456Z,57.09
2019-02-02T13:25:35.011Z,57.92
2019-02-02T13:28:03.646Z,58.28
2019-02-02T13:30:33.933Z,58.97
2019-02-02T13:33:02.592Z,59.53
2019-02-02T13:35:32.860Z,58.80
2019-02-02T13:38:01.475Z,58.68
2019-02-02T13:40:30.036Z,58.29
2019-02-02T13:42:58.741Z,58.33
2019-02-02T13:45:27.296Z,57.36
2019-02-02T13:47:56.518Z,58.48
2019-02-02T13:50:25.206Z,56.74
2019-02-02T13:52:54.159Z,56.58
2019-02-02T13:55:22.701Z,57.08
2019-02-02T13:57:51.319Z,58.08
2019-02-02T14:00:22.269Z,57.19
2019-02-02T14:03:02.092Z,55.58
2019-02-02T14:05:21.930Z,55.63
2019-02-02T14:07:50.503Z,55.65
2019-02-02T14:10:21.328Z,55.92
2019-02-02T14:12:50.297Z,56.35
2019-02-02T14:15:19.083Z,55.65
2019-02-02T14:17:48.273Z,56.46
2019-02-02T14:20:16.939Z,57.63
2019-02-02T14:22:45.791Z,56.98
2019-02-02T14:25:14.618Z,56.51
2019-02-02T14:27:43.541Z,57.18
2019-02-02T14:30:22.789Z,57.27
2019-02-02T14:32:54.427Z,55.79
2019-02-02T14:35:29.618Z,55.89
2019-02-02T14:37:58.188Z,55.77
2019-02-02T14:40:26.749Z,55.23
2019-02-02T14:42:55.328Z,56.51
2019-02-02T14:45:27.301Z,57.79
2019-02-02T14:47:55.907Z,57.15
2019-02-02T14:50:25.070Z,56.45
2019-02-02T14:52:55.036Z,58.08
2019-02-02T14:55:25.504Z,57.47
2019-02-02T14:57:54.453Z,57.53
2019-02-02T15:00:25.054Z,57.65
2019-02-02T15:02:53.803Z,58.03
2019-02-02T15:05:22.569Z,59.94
2019-02-02T15:07:51.239Z,58.12
2019-02-02T15:10:20.778Z,57.87
2019-02-02T15:12:49.537Z,58.23
2019-02-02T15:15:18.700Z,60.39
2019-02-02T15:17:47.376Z,60.32
2019-02-02T15:20:28.170Z,60.77
2019-02-02T15:22:56.700Z,59.48
2019-02-02T15:25:30.903Z,60.30
2019-02-02T15:27:59.530Z,60.21
2019-02-02T15:30:28.946Z,59.19
2019-02-02T15:32:57.635Z,59.44
2019-02-02T15:35:26.292Z,59.13
2019-02-02T15:37:54.940Z,60.26
2019-02-02T15:40:23.585Z,59.79
2019-02-02T15:42:52.146Z,60.76
2019-02-02T15:45:22.141Z,60.62
2019-02-02T15:47:50.813Z,61.10
2019-02-02T15:50:19.453Z,62.19
2019-02-02T15:52:48.128Z,62.08
2019-02-02T15:55:21.434Z,62.47
2019-02-02T15:57:50.107Z,62.85
2019-02-02T16:00:38.079Z,61.85
2019-02-02T16:03:07.080Z,63.10
2019-02-02T16:05:36.572Z,63.22
2019-02-02T16:08:16.390Z,63.28
2019-02-02T16:10:45.006Z,61.60
2019-02-02T16:13:13.825Z,62.02
2019-02-02T16:15:42.445Z,61.63
2019-02-02T16:18:11.014Z,61.94
2019-02-02T16:20:42.265Z,61.23
2019-02-02T16:23:11.149Z,62.10
2019-02-02T16:25:39.731Z,61.36
2019-02-02T16:28:08.483Z,62.45
2019-02-02T16:30:37.135Z,62.88
2019-02-02T16:33:06.199Z,63.40
2019-02-02T16:35:34.778Z,63.19
2019-02-02T16:38:03.367Z,63.56
2019-02-02T16:40:32.144Z,63.57
2019-02-02T16:43:00.757Z,63.26
2019-02-02T16:45:30.302Z,62.41
2019-02-02T16:47:59.237Z,61.39
2019-02-02T16:50:28.079Z,62.59
2019-02-02T16:52:56.644Z,62.66
2019-02-02T16:55:25.426Z,62.92
2019-02-02T16:57:54.227Z,63.62
2019-02-02T17:00:27.808Z,64.81
2019-02-02T17:02:56.432Z,63.42
2019-02-02T17:05:25.131Z,62.81
2019-02-02T17:07:54.859Z,62.79
2019-02-02T17:10:25.600Z,62.95
2019-02-02T17:12:54.248Z,62.75
2019-02-02T17:15:23.048Z,62.79
2019-02-02T17:17:51.965Z,62.81
2019-02-02T17:20:25.791Z,62.66
2019-02-02T17:22:54.401Z,62.56
2019-02-02T17:25:23.298Z,62.73
2019-02-02T17:27:52.037Z,62.38
2019-02-02T17:30:21.909Z,62.95
2019-02-02T17:32:51.750Z,61.95
2019-02-02T17:35:20.431Z,62.95
2019-02-02T17:37:49.082Z,62.69
2019-02-02T17:40:19.885Z,63.08
2019-02-02T17:42:48.458Z,63.50
2019-02-02T17:45:17.937Z,62.55
2019-02-02T17:47:46.639Z,64.11
2019-02-02T17:50:17.083Z,65.47
2019-02-02T17:52:45.742Z,65.57
2019-02-02T17:55:14.534Z,64.62
2019-02-02T17:57:43.199Z,63.14
2019-02-02T18:00:21.903Z,63.03
2019-02-02T18:02:50.484Z,62.46
2019-02-02T18:05:19.099Z,63.25
2019-02-02T18:07:47.678Z,63.46
2019-02-02T18:10:16.506Z,62.37
2019-02-02T18:12:45.375Z,62.44
2019-02-02T18:15:14.271Z,62.42
2019-02-02T18:17:43.026Z,63.06
2019-02-02T18:20:13.209Z,63.25
2019-02-02T18:22:42.059Z,62.31
2019-02-02T18:25:11.882Z,62.42
2019-02-02T18:27:40.850Z,62.83
2019-02-02T18:30:15.585Z,63.52
2019-02-02T18:32:44.207Z,62.00
2019-02-02T18:35:14.481Z,61.45
2019-02-02T18:37:43.103Z,62.18
2019-02-02T18:40:13.084Z,61.55
2019-02-02T18:42:41.692Z,61.72
2019-02-02T18:45:12.553Z,62.97
2019-02-02T18:47:41.192Z,63.09
2019-02-02T18:50:11.927Z,63.37
2019-02-02T18:52:40.587Z,62.93
2019-02-02T18:55:11.984Z,63.41
2019-02-02T18:57:40.586Z,63.81
2019-02-02T19:00:12.940Z,62.35
2019-02-02T19:02:42.554Z,62.08
2019-02-02T19:05:11.276Z,62.10
2019-02-02T19:07:40.126Z,61.33
2019-02-02T19:10:12.157Z,62.07
2019-02-02T19:12:40.824Z,61.65
2019-02-02T19:15:09.843Z,60.96
2019-02-02T19:17:38.430Z,61.50
2019-02-02T19:20:09.193Z,60.99
2019-02-02T19:22:37.802Z,60.82
2019-02-02T19:25:07.161Z,61.69
2019-02-02T19:27:35.750Z,60.95
2019-02-02T19:30:06.326Z,61.34
2019-02-02T19:32:35.133Z,62.37
2019-02-02T19:35:15.254Z,60.71
2019-02-02T19:37:34.519Z,60.43
2019-02-02T19:40:03.243Z,59.71
2019-02-02T19:42:31.835Z,60.17
2019-02-02T19:45:00.416Z,59.91
2019-02-02T19:47:29.040Z,60.24
2019-02-02T19:49:57.604Z,59.76
2019-02-02T19:52:26.197Z,60.08
2019-02-02T19:54:54.762Z,61.50
2019-02-02T19:57:23.366Z,62.50
2019-02-02T19:59:51.943Z,62.04
2019-02-02T20:02:20.535Z,61.04
2019-02-02T20:04:49.141Z,60.02
2019-02-02T20:07:17.728Z,61.03
2019-02-02T20:09:46.339Z,61.52
2019-02-02T20:12:14.969Z,61.78
2019-02-02T20:14:43.638Z,61.93
2019-02-02T20:17:14.571Z,61.55
2019-02-02T20:19:42.686Z,62.05
2019-02-02T20:22:11.278Z,66.14
2019-02-02T20:24:39.898Z,63.20
2019-02-02T20:27:08.480Z,64.82
2019-02-02T20:29:37.069Z,66.87
2019-02-02T20:32:05.687Z,68.38
2019-02-02T20:34:34.248Z,67.91
2019-02-02T20:37:02.843Z,68.00
2019-02-02T20:39:31.438Z,66.58
2019-02-02T20:42:00.094Z,65.51
2019-02-02T20:44:28.670Z,65.00
2019-02-02T20:46:57.265Z,66.22
2019-02-02T20:49:25.840Z,64.30
2019-02-02T20:51:54.462Z,65.33
2019-02-02T20:54:23.375Z,63.31
2019-02-02T20:56:52.206Z,63.28
2019-02-02T20:59:21.995Z,63.78
2019-02-02T21:01:50.639Z,62.56
2019-02-02T21:04:19.225Z,65.03
2019-02-02T21:06:48.027Z,62.67
2019-02-02T21:09:16.670Z,64.81
2019-02-02T21:11:56.398Z,63.43
2019-02-02T21:14:15.935Z,62.72
2019-02-02T21:16:44.606Z,63.66
2019-02-02T21:19:13.189Z,63.82
2019-02-02T21:21:42.644Z,63.84
2019-02-02T21:24:11.278Z,61.92
2019-02-02T21:26:41.330Z,63.11
2019-02-02T21:29:09.964Z,62.11
2019-02-02T21:31:38.638Z,63.06
2019-02-02T21:34:07.333Z,62.81
2019-02-02T21:36:35.909Z,63.49
2019-02-02T21:39:07.152Z,64.81
2019-02-02T21:41:35.750Z,65.26
2019-02-02T21:44:04.355Z,65.90
2019-02-02T21:46:33.153Z,66.81
2019-02-02T21:49:02.102Z,66.34
2019-02-02T21:51:30.806Z,65.87
2019-02-02T21:53:59.382Z,67.37
2019-02-02T21:56:27.973Z,68.59
2019-02-02T21:58:56.734Z,69.47
2019-02-02T22:01:25.321Z,67.22
2019-02-02T22:03:53.919Z,65.86
2019-02-02T22:06:22.546Z,66.18
2019-02-02T22:08:51.123Z,65.42
2019-02-02T22:11:19.750Z,64.70
2019-02-02T22:13:48.367Z,65.97
2019-02-02T22:16:17.050Z,64.10
2019-02-02T22:18:45.624Z,63.68
2019-02-02T22:21:14.441Z,62.14
2019-02-02T22:23:43.052Z,63.64
2019-02-02T22:26:11.755Z,64.81
2019-02-02T22:28:40.292Z,64.45
2019-02-02T22:31:09.217Z,64.34
2019-02-02T22:33:37.818Z,63.94
2019-02-02T22:36:06.712Z,62.59
2019-02-02T22:38:35.321Z,62.61
2019-02-02T22:41:06.887Z,62.55
2019-02-02T22:43:34.396Z,62.29
2019-02-02T22:46:03.147Z,62.83
2019-02-02T22:48:31.721Z,61.84
2019-02-02T22:51:00.294Z,62.02
2019-02-02T22:53:28.907Z,64.04
2019-02-02T22:55:57.713Z,62.82
2019-02-02T22:58:26.658Z,62.19
2019-02-02T23:01:27.728Z,63.22
2019-02-02T23:04:14.520Z,66.49
2019-02-02T23:07:33.560Z,64.38
2019-02-02T23:10:51.587Z,65.01
2019-02-02T23:14:06.160Z,65.73
2019-02-02T23:16:35.373Z,68.13
2019-02-02T23:19:04.046Z,67.96
2019-02-02T23:21:32.848Z,69.48
2019-02-02T23:24:01.524Z,70.67
2019-02-02T23:26:30.254Z,70.92
2019-02-02T23:28:58.826Z,66.97
2019-02-02T23:31:27.424Z,67.68
2019-02-02T23:33:56.003Z,71.62
2019-02-02T23:36:24.675Z,68.66
2019-02-02T23:38:53.318Z,68.58
2019-02-02T23:41:22.742Z,69.49
2019-02-02T23:43:51.569Z,71.89
2019-02-02T23:46:20.128Z,70.87
2019-02-02T23:48:48.817Z,71.39
2019-02-02T23:51:17.360Z,73.73
2019-02-02T23:53:45.956Z,71.90
2019-02-02T23:56:14.559Z,69.13
2019-02-02T23:58:43.413Z,69.22
